sensor_id;sensor_type;location;lat;lon;timestamp;P1;durP1;ratioP1;P2;durP2;ratioP2
11287;SDS011;5700;50.996;7.044;2023-02-21T00:02:14;16.90;;;8.10;;
11287;SDS011;5700;50.996;7.044;2023-02-21T00:05:30;16.27;;;7.88;;
11287;SDS011;5700;50.996;7.044;2023-02-21T00:08:45;15.98;;;7.35;;
11287;SDS011;5700;50.996;7.044;2023-02-21T00:12:02;12.95;;;6.25;;
11287;SDS011;5700;50.996;7.044;2023-02-21T00:15:17;12.25;;;6.43;;
11287;SDS011;5700;50.996;7.044;2023-02-21T00:18:33;12.35;;;5.93;;
11287;SDS011;5700;50.996;7.044;2023-02-21T00:21:49;11.60;;;6.38;;
11287;SDS011;5700;50.996;7.044;2023-02-21T00:25:04;12.70;;;6.38;;
11287;SDS011;5700;50.996;7.044;2023-02-21T00:28:21;10.50;;;5.63;;
11287;SDS011;5700;50.996;7.044;2023-02-21T00:31:37;12.18;;;5.65;;
11287;SDS011;5700;50.996;7.044;2023-02-21T00:34:52;11.75;;;6.00;;
11287;SDS011;5700;50.996;7.044;2023-02-21T00:38:07;15.75;;;7.40;;
11287;SDS011;5700;50.996;7.044;2023-02-21T00:41:24;11.40;;;5.60;;
11287;SDS011;5700;50.996;7.044;2023-02-21T00:44:41;13.93;;;6.65;;
11287;SDS011;5700;50.996;7.044;2023-02-21T00:47:56;15.23;;;7.13;;
11287;SDS011;5700;50.996;7.044;2023-02-21T00:51:11;14.65;;;6.78;;
11287;SDS011;5700;50.996;7.044;2023-02-21T00:54:27;12.60;;;5.72;;
11287;SDS011;5700;50.996;7.044;2023-02-21T00:57:42;11.85;;;5.78;;
11287;SDS011;5700;50.996;7.044;2023-02-21T01:00:59;11.40;;;5.85;;
11287;SDS011;5700;50.996;7.044;2023-02-21T01:04:14;14.68;;;7.47;;
11287;SDS011;5700;50.996;7.044;2023-02-21T01:07:29;20.52;;;7.95;;
11287;SDS011;5700;50.996;7.044;2023-02-21T01:10:45;10.90;;;5.75;;
11287;SDS011;5700;50.996;7.044;2023-02-21T01:14:00;11.60;;;5.97;;
11287;SDS011;5700;50.996;7.044;2023-02-21T01:17:17;9.55;;;5.55;;
11287;SDS011;5700;50.996;7.044;2023-02-21T01:20:32;12.57;;;6.18;;
11287;SDS011;5700;50.996;7.044;2023-02-21T01:23:47;14.15;;;5.90;;
11287;SDS011;5700;50.996;7.044;2023-02-21T01:27:03;17.52;;;6.20;;
11287;SDS011;5700;50.996;7.044;2023-02-21T01:30:18;12.85;;;5.88;;
11287;SDS011;5700;50.996;7.044;2023-02-21T01:33:36;18.50;;;9.15;;
11287;SDS011;5700;50.996;7.044;2023-02-21T01:36:52;16.05;;;8.15;;
11287;SDS011;5700;50.996;7.044;2023-02-21T01:40:08;14.88;;;7.38;;
11287;SDS011;5700;50.996;7.044;2023-02-21T01:43:28;22.50;;;9.68;;
11287;SDS011;5700;50.996;7.044;2023-02-21T01:46:43;16.42;;;8.73;;
11287;SDS011;5700;50.996;7.044;2023-02-21T01:50:01;19.80;;;8.38;;
11287;SDS011;5700;50.996;7.044;2023-02-21T01:53:20;26.27;;;10.20;;
11287;SDS011;5700;50.996;7.044;2023-02-21T01:56:37;30.35;;;11.63;;
11287;SDS011;5700;50.996;7.044;2023-02-21T01:59:53;21.02;;;10.43;;
11287;SDS011;5700;50.996;7.044;2023-02-21T02:03:11;20.20;;;9.52;;
11287;SDS011;5700;50.996;7.044;2023-02-21T02:06:30;23.63;;;10.30;;
11287;SDS011;5700;50.996;7.044;2023-02-21T02:09:46;22.88;;;10.32;;
11287;SDS011;5700;50.996;7.044;2023-02-21T02:13:07;25.92;;;11.18;;
11287;SDS011;5700;50.996;7.044;2023-02-21T02:16:20;25.05;;;10.43;;
11287;SDS011;5700;50.996;7.044;2023-02-21T02:19:37;22.80;;;11.85;;
11287;SDS011;5700;50.996;7.044;2023-02-21T02:22:57;20.70;;;9.55;;
11287;SDS011;5700;50.996;7.044;2023-02-21T02:26:14;23.27;;;10.40;;
11287;SDS011;5700;50.996;7.044;2023-02-21T02:29:33;23.75;;;11.00;;
11287;SDS011;5700;50.996;7.044;2023-02-21T02:32:50;27.88;;;12.77;;
11287;SDS011;5700;50.996;7.044;2023-02-21T02:36:04;20.52;;;9.55;;
11287;SDS011;5700;50.996;7.044;2023-02-21T02:39:09;19.40;;;10.65;;
11287;SDS011;5700;50.996;7.044;2023-02-21T02:42:19;27.25;;;11.02;;
11287;SDS011;5700;50.996;7.044;2023-02-21T02:45:27;23.40;;;11.38;;
11287;SDS011;5700;50.996;7.044;2023-02-21T02:48:32;16.75;;;8.82;;
11287;SDS011;5700;50.996;7.044;2023-02-21T02:51:36;23.80;;;10.27;;
11287;SDS011;5700;50.996;7.044;2023-02-21T02:54:38;22.85;;;10.57;;
11287;SDS011;5700;50.996;7.044;2023-02-21T02:57:40;23.17;;;11.05;;
11287;SDS011;5700;50.996;7.044;2023-02-21T03:00:52;22.52;;;10.57;;
11287;SDS011;5700;50.996;7.044;2023-02-21T03:04:06;23.10;;;11.07;;
11287;SDS011;5700;50.996;7.044;2023-02-21T03:07:16;19.38;;;9.27;;
11287;SDS011;5700;50.996;7.044;2023-02-21T03:10:23;20.05;;;9.02;;
11287;SDS011;5700;50.996;7.044;2023-02-21T03:13:30;21.50;;;10.85;;
11287;SDS011;5700;50.996;7.044;2023-02-21T03:16:37;19.23;;;9.52;;
11287;SDS011;5700;50.996;7.044;2023-02-21T03:19:41;18.60;;;9.43;;
11287;SDS011;5700;50.996;7.044;2023-02-21T03:22:45;18.67;;;8.35;;
11287;SDS011;5700;50.996;7.044;2023-02-21T03:25:48;14.57;;;7.78;;
11287;SDS011;5700;50.996;7.044;2023-02-21T03:28:50;24.73;;;10.95;;
11287;SDS011;5700;50.996;7.044;2023-02-21T03:31:54;19.92;;;9.00;;
11287;SDS011;5700;50.996;7.044;2023-02-21T03:34:56;16.27;;;8.00;;
11287;SDS011;5700;50.996;7.044;2023-02-21T03:37:59;16.13;;;7.60;;
11287;SDS011;5700;50.996;7.044;2023-02-21T03:41:00;15.85;;;7.70;;
11287;SDS011;5700;50.996;7.044;2023-02-21T03:44:02;19.88;;;7.78;;
11287;SDS011;5700;50.996;7.044;2023-02-21T03:47:03;19.15;;;8.65;;
11287;SDS011;5700;50.996;7.044;2023-02-21T03:50:05;18.27;;;8.25;;
11287;SDS011;5700;50.996;7.044;2023-02-21T03:53:08;17.08;;;7.35;;
11287;SDS011;5700;50.996;7.044;2023-02-21T03:56:10;12.45;;;7.10;;
11287;SDS011;5700;50.996;7.044;2023-02-21T03:59:11;15.77;;;6.85;;
11287;SDS011;5700;50.996;7.044;2023-02-21T04:02:13;23.45;;;8.32;;
11287;SDS011;5700;50.996;7.044;2023-02-21T04:05:14;17.15;;;8.23;;
11287;SDS011;5700;50.996;7.044;2023-02-21T04:08:17;17.23;;;7.78;;
11287;SDS011;5700;50.996;7.044;2023-02-21T04:11:19;15.70;;;7.43;;
11287;SDS011;5700;50.996;7.044;2023-02-21T04:14:21;13.80;;;6.80;;
11287;SDS011;5700;50.996;7.044;2023-02-21T04:17:22;17.48;;;6.57;;
11287;SDS011;5700;50.996;7.044;2023-02-21T04:20:24;24.38;;;8.95;;
11287;SDS011;5700;50.996;7.044;2023-02-21T04:23:27;17.85;;;8.15;;
11287;SDS011;5700;50.996;7.044;2023-02-21T04:26:28;19.90;;;9.05;;
11287;SDS011;5700;50.996;7.044;2023-02-21T04:29:29;21.27;;;8.60;;
11287;SDS011;5700;50.996;7.044;2023-02-21T04:32:31;18.73;;;8.20;;
11287;SDS011;5700;50.996;7.044;2023-02-21T04:35:32;21.80;;;9.43;;
11287;SDS011;5700;50.996;7.044;2023-02-21T04:38:35;15.30;;;7.80;;
11287;SDS011;5700;50.996;7.044;2023-02-21T04:41:37;16.08;;;7.80;;
11287;SDS011;5700;50.996;7.044;2023-02-21T04:44:39;19.48;;;8.05;;
11287;SDS011;5700;50.996;7.044;2023-02-21T04:47:40;13.95;;;6.82;;
11287;SDS011;5700;50.996;7.044;2023-02-21T04:50:41;13.23;;;5.70;;
11287;SDS011;5700;50.996;7.044;2023-02-21T04:53:45;17.75;;;7.50;;
11287;SDS011;5700;50.996;7.044;2023-02-21T04:56:47;15.40;;;7.57;;
11287;SDS011;5700;50.996;7.044;2023-02-21T04:59:48;17.90;;;7.50;;
11287;SDS011;5700;50.996;7.044;2023-02-21T05:02:56;20.00;;;7.57;;
11287;SDS011;5700;50.996;7.044;2023-02-21T05:05:57;17.77;;;8.73;;
11287;SDS011;5700;50.996;7.044;2023-02-21T05:09:00;14.85;;;7.78;;
11287;SDS011;5700;50.996;7.044;2023-02-21T05:12:02;15.43;;;7.90;;
11287;SDS011;5700;50.996;7.044;2023-02-21T05:15:10;19.48;;;9.07;;
11287;SDS011;5700;50.996;7.044;2023-02-21T05:18:13;23.25;;;9.93;;
11287;SDS011;5700;50.996;7.044;2023-02-21T05:21:22;18.10;;;8.70;;
11287;SDS011;5700;50.996;7.044;2023-02-21T05:24:25;17.17;;;8.82;;
11287;SDS011;5700;50.996;7.044;2023-02-21T05:27:27;24.30;;;9.07;;
11287;SDS011;5700;50.996;7.044;2023-02-21T05:30:29;15.35;;;6.72;;
11287;SDS011;5700;50.996;7.044;2023-02-21T05:33:31;17.73;;;7.93;;
11287;SDS011;5700;50.996;7.044;2023-02-21T05:36:33;25.70;;;9.52;;
11287;SDS011;5700;50.996;7.044;2023-02-21T05:39:35;18.92;;;8.43;;
11287;SDS011;5700;50.996;7.044;2023-02-21T05:42:37;18.08;;;7.28;;
11287;SDS011;5700;50.996;7.044;2023-02-21T05:45:38;17.80;;;6.57;;
11287;SDS011;5700;50.996;7.044;2023-02-21T05:48:39;27.75;;;10.57;;
11287;SDS011;5700;50.996;7.044;2023-02-21T05:51:42;21.88;;;8.32;;
11287;SDS011;5700;50.996;7.044;2023-02-21T05:54:45;17.90;;;7.95;;
11287;SDS011;5700;50.996;7.044;2023-02-21T05:57:46;23.35;;;8.73;;
11287;SDS011;5700;50.996;7.044;2023-02-21T06:00:47;20.52;;;7.40;;
11287;SDS011;5700;50.996;7.044;2023-02-21T06:03:49;21.27;;;8.55;;
11287;SDS011;5700;50.996;7.044;2023-02-21T06:06:50;22.67;;;8.02;;
11287;SDS011;5700;50.996;7.044;2023-02-21T06:09:53;16.33;;;8.77;;
11287;SDS011;5700;50.996;7.044;2023-02-21T06:12:54;21.02;;;9.35;;
11287;SDS011;5700;50.996;7.044;2023-02-21T06:15:56;20.20;;;9.00;;
11287;SDS011;5700;50.996;7.044;2023-02-21T06:18:57;19.85;;;8.93;;
11287;SDS011;5700;50.996;7.044;2023-02-21T06:21:58;25.08;;;9.88;;
11287;SDS011;5700;50.996;7.044;2023-02-21T06:25:01;24.88;;;8.38;;
11287;SDS011;5700;50.996;7.044;2023-02-21T06:28:03;20.15;;;9.30;;
11287;SDS011;5700;50.996;7.044;2023-02-21T06:31:04;17.15;;;7.25;;
11287;SDS011;5700;50.996;7.044;2023-02-21T06:34:06;18.88;;;7.65;;
11287;SDS011;5700;50.996;7.044;2023-02-21T06:37:07;17.00;;;8.70;;
11287;SDS011;5700;50.996;7.044;2023-02-21T06:40:10;18.85;;;8.38;;
11287;SDS011;5700;50.996;7.044;2023-02-21T06:43:12;24.48;;;8.82;;
11287;SDS011;5700;50.996;7.044;2023-02-21T06:46:14;22.60;;;9.85;;
11287;SDS011;5700;50.996;7.044;2023-02-21T06:49:16;29.65;;;11.40;;
11287;SDS011;5700;50.996;7.044;2023-02-21T06:52:18;29.38;;;10.40;;
11287;SDS011;5700;50.996;7.044;2023-02-21T06:55:21;33.55;;;12.63;;
11287;SDS011;5700;50.996;7.044;2023-02-21T06:58:23;27.88;;;12.50;;
11287;SDS011;5700;50.996;7.044;2023-02-21T07:01:24;33.90;;;13.07;;
11287;SDS011;5700;50.996;7.044;2023-02-21T07:04:26;28.23;;;12.90;;
11287;SDS011;5700;50.996;7.044;2023-02-21T07:07:28;25.95;;;10.77;;
11287;SDS011;5700;50.996;7.044;2023-02-21T07:10:30;26.65;;;9.32;;
11287;SDS011;5700;50.996;7.044;2023-02-21T07:13:32;26.88;;;11.23;;
11287;SDS011;5700;50.996;7.044;2023-02-21T07:16:34;27.02;;;10.13;;
11287;SDS011;5700;50.996;7.044;2023-02-21T07:19:35;29.08;;;10.13;;
11287;SDS011;5700;50.996;7.044;2023-02-21T07:22:36;29.58;;;11.15;;
11287;SDS011;5700;50.996;7.044;2023-02-21T07:25:39;28.80;;;10.52;;
11287;SDS011;5700;50.996;7.044;2023-02-21T07:28:41;32.70;;;11.25;;
11287;SDS011;5700;50.996;7.044;2023-02-21T07:31:42;48.75;;;17.60;;
11287;SDS011;5700;50.996;7.044;2023-02-21T07:34:43;36.50;;;15.65;;
11287;SDS011;5700;50.996;7.044;2023-02-21T07:37:45;38.75;;;14.30;;
11287;SDS011;5700;50.996;7.044;2023-02-21T07:40:48;41.15;;;16.05;;
11287;SDS011;5700;50.996;7.044;2023-02-21T07:43:49;43.55;;;15.88;;
11287;SDS011;5700;50.996;7.044;2023-02-21T07:46:51;37.85;;;13.70;;
11287;SDS011;5700;50.996;7.044;2023-02-21T07:49:52;40.90;;;14.13;;
11287;SDS011;5700;50.996;7.044;2023-02-21T07:52:54;36.78;;;14.20;;
11287;SDS011;5700;50.996;7.044;2023-02-21T07:56:00;38.75;;;14.75;;
11287;SDS011;5700;50.996;7.044;2023-02-21T07:59:01;37.67;;;15.25;;
11287;SDS011;5700;50.996;7.044;2023-02-21T08:02:02;39.50;;;15.18;;
11287;SDS011;5700;50.996;7.044;2023-02-21T08:05:04;45.97;;;14.77;;
11287;SDS011;5700;50.996;7.044;2023-02-21T08:08:06;43.65;;;16.25;;
11287;SDS011;5700;50.996;7.044;2023-02-21T08:11:09;37.67;;;14.73;;
11287;SDS011;5700;50.996;7.044;2023-02-21T08:14:10;44.60;;;14.73;;
11287;SDS011;5700;50.996;7.044;2023-02-21T08:17:12;41.15;;;16.35;;
11287;SDS011;5700;50.996;7.044;2023-02-21T08:20:13;44.58;;;15.88;;
11287;SDS011;5700;50.996;7.044;2023-02-21T08:23:15;46.63;;;15.13;;
11287;SDS011;5700;50.996;7.044;2023-02-21T08:26:18;38.28;;;13.40;;
11287;SDS011;5700;50.996;7.044;2023-02-21T08:29:20;43.20;;;17.00;;
11287;SDS011;5700;50.996;7.044;2023-02-21T08:32:21;45.53;;;15.27;;
11287;SDS011;5700;50.996;7.044;2023-02-21T08:35:22;38.65;;;15.20;;
11287;SDS011;5700;50.996;7.044;2023-02-21T08:38:24;47.20;;;15.82;;
11287;SDS011;5700;50.996;7.044;2023-02-21T08:41:34;48.00;;;17.23;;
11287;SDS011;5700;50.996;7.044;2023-02-21T08:44:37;52.33;;;17.88;;
11287;SDS011;5700;50.996;7.044;2023-02-21T08:47:38;53.63;;;19.23;;
11287;SDS011;5700;50.996;7.044;2023-02-21T08:50:40;58.53;;;18.55;;
11287;SDS011;5700;50.996;7.044;2023-02-21T08:53:41;50.55;;;17.60;;
11287;SDS011;5700;50.996;7.044;2023-02-21T08:56:44;49.60;;;16.70;;
11287;SDS011;5700;50.996;7.044;2023-02-21T08:59:47;49.85;;;16.08;;
11287;SDS011;5700;50.996;7.044;2023-02-21T09:02:49;52.15;;;18.35;;
11287;SDS011;5700;50.996;7.044;2023-02-21T09:05:51;36.42;;;14.55;;
11287;SDS011;5700;50.996;7.044;2023-02-21T09:08:53;36.00;;;13.98;;
11287;SDS011;5700;50.996;7.044;2023-02-21T09:11:56;44.72;;;14.52;;
11287;SDS011;5700;50.996;7.044;2023-02-21T09:14:58;48.83;;;16.45;;
11287;SDS011;5700;50.996;7.044;2023-02-21T09:17:59;42.72;;;15.00;;
11287;SDS011;5700;50.996;7.044;2023-02-21T09:21:01;35.70;;;13.60;;
11287;SDS011;5700;50.996;7.044;2023-02-21T09:24:02;40.42;;;14.45;;
11287;SDS011;5700;50.996;7.044;2023-02-21T09:27:06;45.92;;;15.73;;
11287;SDS011;5700;50.996;7.044;2023-02-21T09:30:08;45.38;;;16.80;;
11287;SDS011;5700;50.996;7.044;2023-02-21T09:33:12;47.80;;;16.60;;
11287;SDS011;5700;50.996;7.044;2023-02-21T09:36:14;50.67;;;17.63;;
11287;SDS011;5700;50.996;7.044;2023-02-21T09:39:17;38.15;;;16.08;;
11287;SDS011;5700;50.996;7.044;2023-02-21T09:42:20;40.55;;;14.88;;
11287;SDS011;5700;50.996;7.044;2023-02-21T09:45:25;54.17;;;17.17;;
11287;SDS011;5700;50.996;7.044;2023-02-21T09:48:28;38.55;;;14.07;;
11287;SDS011;5700;50.996;7.044;2023-02-21T09:51:30;38.95;;;14.43;;
11287;SDS011;5700;50.996;7.044;2023-02-21T09:54:34;45.78;;;16.70;;
11287;SDS011;5700;50.996;7.044;2023-02-21T09:57:38;41.75;;;15.82;;
11287;SDS011;5700;50.996;7.044;2023-02-21T10:00:40;43.08;;;17.30;;
11287;SDS011;5700;50.996;7.044;2023-02-21T10:03:43;45.28;;;16.42;;
11287;SDS011;5700;50.996;7.044;2023-02-21T10:06:49;43.80;;;17.10;;
11287;SDS011;5700;50.996;7.044;2023-02-21T10:09:53;47.90;;;18.27;;
11287;SDS011;5700;50.996;7.044;2023-02-21T10:13:00;48.78;;;18.20;;
11287;SDS011;5700;50.996;7.044;2023-02-21T10:16:07;41.25;;;17.33;;
11287;SDS011;5700;50.996;7.044;2023-02-21T10:19:13;52.30;;;17.50;;
11287;SDS011;5700;50.996;7.044;2023-02-21T10:22:17;52.10;;;18.65;;
11287;SDS011;5700;50.996;7.044;2023-02-21T10:25:22;45.25;;;16.38;;
11287;SDS011;5700;50.996;7.044;2023-02-21T10:28:29;47.03;;;16.25;;
11287;SDS011;5700;50.996;7.044;2023-02-21T10:31:31;41.75;;;14.85;;
11287;SDS011;5700;50.996;7.044;2023-02-21T10:34:34;43.55;;;15.43;;
11287;SDS011;5700;50.996;7.044;2023-02-21T10:37:36;41.42;;;15.48;;
11287;SDS011;5700;50.996;7.044;2023-02-21T10:40:41;40.50;;;14.65;;
11287;SDS011;5700;50.996;7.044;2023-02-21T10:43:45;49.15;;;14.65;;
11287;SDS011;5700;50.996;7.044;2023-02-21T10:46:51;35.83;;;14.35;;
11287;SDS011;5700;50.996;7.044;2023-02-21T10:49:58;37.60;;;14.55;;
11287;SDS011;5700;50.996;7.044;2023-02-21T10:53:02;43.33;;;14.35;;
11287;SDS011;5700;50.996;7.044;2023-02-21T10:56:08;34.72;;;12.45;;
11287;SDS011;5700;50.996;7.044;2023-02-21T10:59:19;36.42;;;12.57;;
11287;SDS011;5700;50.996;7.044;2023-02-21T11:02:25;33.10;;;12.55;;
11287;SDS011;5700;50.996;7.044;2023-02-21T11:05:29;39.22;;;12.27;;
11287;SDS011;5700;50.996;7.044;2023-02-21T11:08:34;35.50;;;12.82;;
11287;SDS011;5700;50.996;7.044;2023-02-21T11:11:37;37.67;;;12.57;;
11287;SDS011;5700;50.996;7.044;2023-02-21T11:14:42;39.25;;;14.00;;
11287;SDS011;5700;50.996;7.044;2023-02-21T11:17:44;38.78;;;12.95;;
11287;SDS011;5700;50.996;7.044;2023-02-21T11:20:46;42.47;;;14.75;;
11287;SDS011;5700;50.996;7.044;2023-02-21T11:23:54;34.63;;;12.73;;
11287;SDS011;5700;50.996;7.044;2023-02-21T11:26:58;34.13;;;14.38;;
11287;SDS011;5700;50.996;7.044;2023-02-21T11:30:02;36.33;;;13.35;;
11287;SDS011;5700;50.996;7.044;2023-02-21T11:33:20;40.00;;;14.68;;
11287;SDS011;5700;50.996;7.044;2023-02-21T11:36:25;44.90;;;16.30;;
11287;SDS011;5700;50.996;7.044;2023-02-21T11:39:30;39.90;;;16.05;;
11287;SDS011;5700;50.996;7.044;2023-02-21T11:42:33;43.72;;;16.33;;
11287;SDS011;5700;50.996;7.044;2023-02-21T11:45:36;43.35;;;14.90;;
11287;SDS011;5700;50.996;7.044;2023-02-21T11:48:41;38.75;;;14.85;;
11287;SDS011;5700;50.996;7.044;2023-02-21T11:51:48;42.97;;;15.45;;
11287;SDS011;5700;50.996;7.044;2023-02-21T11:54:51;47.53;;;17.35;;
11287;SDS011;5700;50.996;7.044;2023-02-21T11:57:54;47.42;;;16.00;;
11287;SDS011;5700;50.996;7.044;2023-02-21T12:01:03;39.42;;;15.13;;
11287;SDS011;5700;50.996;7.044;2023-02-21T12:04:17;45.95;;;16.88;;
11287;SDS011;5700;50.996;7.044;2023-02-21T12:07:38;44.58;;;15.02;;
11287;SDS011;5700;50.996;7.044;2023-02-21T12:10:43;38.92;;;14.90;;
11287;SDS011;5700;50.996;7.044;2023-02-21T12:13:52;36.63;;;14.13;;
11287;SDS011;5700;50.996;7.044;2023-02-21T12:17:03;33.40;;;13.88;;
11287;SDS011;5700;50.996;7.044;2023-02-21T12:23:34;32.38;;;13.45;;
11287;SDS011;5700;50.996;7.044;2023-02-21T12:26:45;37.67;;;13.20;;
11287;SDS011;5700;50.996;7.044;2023-02-21T12:29:54;33.83;;;13.65;;
11287;SDS011;5700;50.996;7.044;2023-02-21T12:33:09;35.17;;;13.20;;
11287;SDS011;5700;50.996;7.044;2023-02-21T12:36:24;35.33;;;14.10;;
11287;SDS011;5700;50.996;7.044;2023-02-21T12:39:44;43.72;;;14.38;;
11287;SDS011;5700;50.996;7.044;2023-02-21T12:42:56;30.88;;;12.98;;
11287;SDS011;5700;50.996;7.044;2023-02-21T12:46:06;35.20;;;13.90;;
11287;SDS011;5700;50.996;7.044;2023-02-21T12:49:15;32.50;;;12.48;;
11287;SDS011;5700;50.996;7.044;2023-02-21T12:52:20;30.92;;;13.30;;
11287;SDS011;5700;50.996;7.044;2023-02-21T12:55:25;31.10;;;13.35;;
11287;SDS011;5700;50.996;7.044;2023-02-21T12:58:29;33.47;;;14.10;;
11287;SDS011;5700;50.996;7.044;2023-02-21T13:01:35;38.92;;;14.18;;
11287;SDS011;5700;50.996;7.044;2023-02-21T13:04:43;37.00;;;13.75;;
11287;SDS011;5700;50.996;7.044;2023-02-21T13:07:48;35.67;;;12.60;;
11287;SDS011;5700;50.996;7.044;2023-02-21T13:14:10;30.65;;;13.50;;
11287;SDS011;5700;50.996;7.044;2023-02-21T13:17:18;32.88;;;13.68;;
11287;SDS011;5700;50.996;7.044;2023-02-21T13:20:21;36.08;;;13.30;;
11287;SDS011;5700;50.996;7.044;2023-02-21T13:27:22;31.13;;;11.88;;
11287;SDS011;5700;50.996;7.044;2023-02-21T13:30:36;30.25;;;12.52;;
11287;SDS011;5700;50.996;7.044;2023-02-21T13:33:39;26.83;;;10.85;;
11287;SDS011;5700;50.996;7.044;2023-02-21T13:36:45;29.75;;;13.32;;
11287;SDS011;5700;50.996;7.044;2023-02-21T13:39:48;38.35;;;13.23;;
11287;SDS011;5700;50.996;7.044;2023-02-21T13:42:57;32.92;;;13.45;;
11287;SDS011;5700;50.996;7.044;2023-02-21T13:53:00;35.17;;;14.02;;
11287;SDS011;5700;50.996;7.044;2023-02-21T14:02:36;31.13;;;12.85;;
11287;SDS011;5700;50.996;7.044;2023-02-21T14:09:27;34.05;;;13.95;;
11287;SDS011;5700;50.996;7.044;2023-02-21T14:12:28;38.40;;;14.63;;
11287;SDS011;5700;50.996;7.044;2023-02-21T14:15:35;44.65;;;15.25;;
11287;SDS011;5700;50.996;7.044;2023-02-21T14:18:38;37.67;;;15.27;;
11287;SDS011;5700;50.996;7.044;2023-02-21T14:21:43;39.42;;;15.77;;
11287;SDS011;5700;50.996;7.044;2023-02-21T14:24:47;37.30;;;15.18;;
11287;SDS011;5700;50.996;7.044;2023-02-21T14:27:55;37.60;;;15.85;;
11287;SDS011;5700;50.996;7.044;2023-02-21T14:31:00;40.83;;;17.10;;
11287;SDS011;5700;50.996;7.044;2023-02-21T14:34:02;42.72;;;15.77;;
11287;SDS011;5700;50.996;7.044;2023-02-21T14:37:05;39.97;;;15.50;;
11287;SDS011;5700;50.996;7.044;2023-02-21T14:40:18;43.67;;;15.30;;
11287;SDS011;5700;50.996;7.044;2023-02-21T14:43:37;38.67;;;15.50;;
11287;SDS011;5700;50.996;7.044;2023-02-21T14:46:52;39.95;;;15.93;;
11287;SDS011;5700;50.996;7.044;2023-02-21T14:50:15;37.22;;;14.15;;
11287;SDS011;5700;50.996;7.044;2023-02-21T14:53:30;42.50;;;15.82;;
11287;SDS011;5700;50.996;7.044;2023-02-21T14:56:52;40.58;;;14.95;;
11287;SDS011;5700;50.996;7.044;2023-02-21T15:00:05;38.97;;;15.52;;
11287;SDS011;5700;50.996;7.044;2023-02-21T15:03:11;48.10;;;18.30;;
11287;SDS011;5700;50.996;7.044;2023-02-21T15:06:18;40.60;;;15.88;;
11287;SDS011;5700;50.996;7.044;2023-02-21T15:09:22;39.38;;;15.38;;
11287;SDS011;5700;50.996;7.044;2023-02-21T15:12:25;43.55;;;15.43;;
11287;SDS011;5700;50.996;7.044;2023-02-21T15:15:28;43.88;;;15.30;;
11287;SDS011;5700;50.996;7.044;2023-02-21T15:18:32;38.08;;;15.13;;
11287;SDS011;5700;50.996;7.044;2023-02-21T15:21:35;38.40;;;16.35;;
11287;SDS011;5700;50.996;7.044;2023-02-21T15:24:36;38.15;;;14.38;;
11287;SDS011;5700;50.996;7.044;2023-02-21T15:27:50;42.50;;;15.57;;
11287;SDS011;5700;50.996;7.044;2023-02-21T15:30:54;38.35;;;15.73;;
11287;SDS011;5700;50.996;7.044;2023-02-21T15:33:58;38.00;;;14.02;;
11287;SDS011;5700;50.996;7.044;2023-02-21T15:37:01;46.28;;;16.77;;
11287;SDS011;5700;50.996;7.044;2023-02-21T15:40:05;45.92;;;17.30;;
11287;SDS011;5700;50.996;7.044;2023-02-21T15:43:22;39.85;;;15.95;;
11287;SDS011;5700;50.996;7.044;2023-02-21T15:46:28;42.45;;;17.15;;
11287;SDS011;5700;50.996;7.044;2023-02-21T15:49:32;46.55;;;18.15;;
11287;SDS011;5700;50.996;7.044;2023-02-21T15:52:37;45.67;;;17.00;;
11287;SDS011;5700;50.996;7.044;2023-02-21T15:55:39;42.53;;;16.55;;
11287;SDS011;5700;50.996;7.044;2023-02-21T16:02:05;41.45;;;15.93;;
11287;SDS011;5700;50.996;7.044;2023-02-21T16:05:21;45.88;;;17.10;;
11287;SDS011;5700;50.996;7.044;2023-02-21T16:08:24;45.67;;;16.90;;
11287;SDS011;5700;50.996;7.044;2023-02-21T16:11:36;40.42;;;15.63;;
11287;SDS011;5700;50.996;7.044;2023-02-21T16:14:41;43.05;;;16.10;;
11287;SDS011;5700;50.996;7.044;2023-02-21T16:17:44;41.83;;;17.20;;
11287;SDS011;5700;50.996;7.044;2023-02-21T16:20:57;39.20;;;15.05;;
11287;SDS011;5700;50.996;7.044;2023-02-21T16:24:12;44.65;;;16.52;;
11287;SDS011;5700;50.996;7.044;2023-02-21T16:27:15;42.58;;;17.60;;
11287;SDS011;5700;50.996;7.044;2023-02-21T16:30:20;38.42;;;16.23;;
11287;SDS011;5700;50.996;7.044;2023-02-21T16:33:23;40.05;;;15.80;;
11287;SDS011;5700;50.996;7.044;2023-02-21T16:36:25;43.85;;;17.25;;
11287;SDS011;5700;50.996;7.044;2023-02-21T16:39:28;42.97;;;16.83;;
11287;SDS011;5700;50.996;7.044;2023-02-21T16:42:29;42.03;;;15.43;;
11287;SDS011;5700;50.996;7.044;2023-02-21T16:45:32;46.45;;;16.70;;
11287;SDS011;5700;50.996;7.044;2023-02-21T16:48:33;38.70;;;16.77;;
11287;SDS011;5700;50.996;7.044;2023-02-21T16:51:35;41.72;;;17.45;;
11287;SDS011;5700;50.996;7.044;2023-02-21T16:54:40;53.90;;;19.48;;
11287;SDS011;5700;50.996;7.044;2023-02-21T16:57:41;50.08;;;19.30;;
11287;SDS011;5700;50.996;7.044;2023-02-21T17:00:45;48.20;;;18.73;;
11287;SDS011;5700;50.996;7.044;2023-02-21T17:03:47;44.35;;;18.15;;
11287;SDS011;5700;50.996;7.044;2023-02-21T17:06:50;33.95;;;14.20;;
11287;SDS011;5700;50.996;7.044;2023-02-21T17:09:53;41.33;;;16.58;;
11287;SDS011;5700;50.996;7.044;2023-02-21T17:12:54;42.45;;;15.60;;
11287;SDS011;5700;50.996;7.044;2023-02-21T17:15:57;43.30;;;16.38;;
11287;SDS011;5700;50.996;7.044;2023-02-21T17:18:58;46.72;;;16.95;;
11287;SDS011;5700;50.996;7.044;2023-02-21T17:22:00;40.50;;;15.27;;
11287;SDS011;5700;50.996;7.044;2023-02-21T17:25:01;36.33;;;14.90;;
11287;SDS011;5700;50.996;7.044;2023-02-21T17:28:03;38.72;;;15.32;;
11287;SDS011;5700;50.996;7.044;2023-02-21T17:31:06;41.40;;;15.93;;
11287;SDS011;5700;50.996;7.044;2023-02-21T17:34:08;32.88;;;14.18;;
11287;SDS011;5700;50.996;7.044;2023-02-21T17:37:11;46.33;;;17.52;;
11287;SDS011;5700;50.996;7.044;2023-02-21T17:40:13;38.45;;;15.57;;
11287;SDS011;5700;50.996;7.044;2023-02-21T17:43:15;45.88;;;16.85;;
11287;SDS011;5700;50.996;7.044;2023-02-21T17:46:18;41.63;;;16.23;;
11287;SDS011;5700;50.996;7.044;2023-02-21T17:49:21;38.30;;;16.40;;
11287;SDS011;5700;50.996;7.044;2023-02-21T17:52:24;40.38;;;19.00;;
11287;SDS011;5700;50.996;7.044;2023-02-21T17:55:26;37.72;;;17.45;;
11287;SDS011;5700;50.996;7.044;2023-02-21T17:58:29;36.42;;;17.15;;
11287;SDS011;5700;50.996;7.044;2023-02-21T18:01:31;44.72;;;18.17;;
11287;SDS011;5700;50.996;7.044;2023-02-21T18:04:33;43.55;;;17.85;;
11287;SDS011;5700;50.996;7.044;2023-02-21T18:07:34;37.38;;;16.55;;
11287;SDS011;5700;50.996;7.044;2023-02-21T18:10:36;41.08;;;16.55;;
11287;SDS011;5700;50.996;7.044;2023-02-21T18:13:37;37.45;;;15.30;;
11287;SDS011;5700;50.996;7.044;2023-02-21T18:16:40;48.20;;;19.52;;
11287;SDS011;5700;50.996;7.044;2023-02-21T18:19:42;51.72;;;19.65;;
11287;SDS011;5700;50.996;7.044;2023-02-21T18:22:43;58.72;;;20.65;;
11287;SDS011;5700;50.996;7.044;2023-02-21T18:25:45;60.92;;;22.88;;
11287;SDS011;5700;50.996;7.044;2023-02-21T18:28:46;58.45;;;22.33;;
11287;SDS011;5700;50.996;7.044;2023-02-21T18:31:51;55.08;;;22.63;;
11287;SDS011;5700;50.996;7.044;2023-02-21T18:34:53;55.17;;;21.13;;
11287;SDS011;5700;50.996;7.044;2023-02-21T18:37:56;52.25;;;19.20;;
11287;SDS011;5700;50.996;7.044;2023-02-21T18:40:57;44.85;;;18.75;;
11287;SDS011;5700;50.996;7.044;2023-02-21T18:44:01;48.60;;;18.35;;
11287;SDS011;5700;50.996;7.044;2023-02-21T18:47:03;41.22;;;16.90;;
11287;SDS011;5700;50.996;7.044;2023-02-21T18:50:05;51.10;;;19.42;;
11287;SDS011;5700;50.996;7.044;2023-02-21T18:53:07;59.03;;;22.30;;
11287;SDS011;5700;50.996;7.044;2023-02-21T18:56:09;49.95;;;18.50;;
11287;SDS011;5700;50.996;7.044;2023-02-21T18:59:12;49.08;;;19.38;;